createdAt,value
2022-08-12T00:11:57.606Z,1016.47
2022-08-12T00:26:19.054Z,1016.46
2022-08-12T00:39:57.709Z,1016.56
2022-08-12T00:53:57.637Z,1016.38
2022-08-12T01:07:57.662Z,1016.39
2022-08-12T01:21:57.664Z,1016.52
2022-08-12T01:35:59.466Z,1016.44
2022-08-12T01:49:57.831Z,1016.41
2022-08-12T02:03:57.852Z,1016.32
2022-08-12T02:17:57.876Z,1016.27
2022-08-12T02:31:57.918Z,1015.96
2022-08-12T02:45:57.915Z,1016
2022-08-12T02:59:57.916Z,1015.75
2022-08-12T03:13:57.922Z,1015.76
2022-08-12T03:27:57.925Z,1015.61
2022-08-12T03:41:58.168Z,1015.74
2022-08-12T03:55:57.920Z,1015.75
2022-08-12T04:10:57.933Z,1015.69
2022-08-12T04:25:57.963Z,1015.56
2022-08-12T04:40:57.941Z,1015.79
2022-08-12T05:05:35.795Z,1015.72
2022-08-12T05:20:32.681Z,1015.76
2022-08-12T05:35:32.642Z,1015.86
2022-08-12T05:50:32.691Z,1015.97
2022-08-12T06:06:35.535Z,1016.04
2022-08-12T06:21:32.699Z,1016.24
2022-08-12T06:36:33.641Z,1016.38
2022-08-12T06:51:32.768Z,1016.46
2022-08-12T07:06:32.753Z,1016.38
2022-08-12T07:21:58.985Z,1016.5
2022-08-12T07:36:32.788Z,1016.52
2022-08-12T07:51:32.804Z,1016.63
2022-08-12T08:06:32.785Z,1016.68
2022-08-12T08:21:32.800Z,1016.78
2022-08-12T08:36:32.793Z,1016.8
2022-08-12T08:51:32.776Z,1016.81
2022-08-12T09:21:54.479Z,1016.58
2022-08-12T09:36:57.613Z,1016.5
2022-08-12T09:51:35.654Z,1016.31
2022-08-12T10:07:39.589Z,1016.24
2022-08-12T10:23:39.623Z,1016.16
2022-08-12T10:39:44.389Z,1015.93
2022-08-12T11:00:32.218Z,1016.02
2022-08-12T11:15:24.510Z,1016.02
2022-08-12T11:30:30.904Z,1016.02
2022-08-12T11:45:22.071Z,1015.9
2022-08-12T12:15:24.991Z,1015.89
2022-08-12T12:30:26.993Z,1015.89
2022-08-12T12:45:26.019Z,1015.76
2022-08-12T13:00:22.287Z,1015.75
2022-08-12T13:15:43.691Z,1015.54
2022-08-12T13:30:23.706Z,1015.41
2022-08-12T13:45:22.431Z,1015.31
2022-08-12T14:00:22.376Z,1015.4
2022-08-12T14:15:26.648Z,1015.38
2022-08-12T14:30:24.231Z,1015.38
2022-08-12T14:45:23.167Z,1015.52
2022-08-12T15:00:22.922Z,1015.41
2022-08-12T15:15:22.924Z,1015.49
2022-08-12T15:30:22.939Z,1015.84
2022-08-12T15:45:23.672Z,1015.78
2022-08-12T16:00:32.221Z,1015.79
2022-08-12T16:15:23.233Z,1015.45
2022-08-12T16:30:29.416Z,1015.44
2022-08-12T16:45:23.234Z,1015.33
2022-08-12T17:00:23.263Z,1015.46
2022-08-12T17:15:51.484Z,1015.35
2022-08-12T17:30:23.482Z,1015.2
2022-08-12T17:45:23.493Z,1015.45
2022-08-12T18:00:23.495Z,1015.56
2022-08-12T18:15:26.376Z,1015.42
2022-08-12T18:30:29.589Z,1015.48
2022-08-12T18:45:23.526Z,1015.38
2022-08-12T19:00:23.571Z,1015.31
2022-08-12T19:14:23.568Z,1015.48
2022-08-12T19:28:29.748Z,1015.61
2022-08-12T19:42:24.057Z,1015.93
2022-08-12T19:56:25.136Z,1016.23
2022-08-12T20:10:23.558Z,1016.46
2022-08-12T20:24:23.571Z,1016.47
2022-08-12T20:38:25.857Z,1016.54
2022-08-12T20:52:24.357Z,1016.4
2022-08-12T21:06:23.576Z,1016.41
2022-08-12T21:20:23.609Z,1016.27
2022-08-12T21:34:26.253Z,1016.18
2022-08-12T21:48:23.629Z,1016.11
2022-08-12T22:02:23.578Z,1015.89
2022-08-12T22:16:23.587Z,1015.85
2022-08-12T22:30:23.593Z,1015.82
2022-08-12T22:44:23.636Z,1015.78
2022-08-12T22:58:23.623Z,1015.7
2022-08-12T23:12:25.103Z,1015.55
2022-08-12T23:26:23.617Z,1015.36
2022-08-12T23:40:24.575Z,1015.28
2022-08-12T23:54:33.055Z,1015.22
